createdAt,value
2022-10-03T00:02:39.365Z,86.10
2022-10-03T00:05:17.894Z,86.40
2022-10-03T00:07:57.038Z,86.60
2022-10-03T00:10:27.360Z,86.80
2022-10-03T00:13:03.851Z,87.00
2022-10-03T00:15:44.925Z,87.00
2022-10-03T00:18:14.766Z,87.00
2022-10-03T00:21:01.668Z,87.00
2022-10-03T00:23:36.396Z,87.00
2022-10-03T00:26:23.349Z,86.90
2022-10-03T00:28:57.968Z,86.90
2022-10-03T00:31:25.309Z,86.90
2022-10-03T00:34:10.916Z,87.00
2022-10-03T00:36:38.222Z,87.10
2022-10-03T00:39:22.115Z,87.20
2022-10-03T00:41:55.272Z,87.10
2022-10-03T00:44:28.294Z,87.00
2022-10-03T00:46:55.148Z,87.20
2022-10-03T00:49:40.787Z,87.30
2022-10-03T00:52:27.256Z,87.40
2022-10-03T00:55:34.073Z,87.40
2022-10-03T00:58:01.030Z,87.40
2022-10-03T01:00:29.451Z,87.50
2022-10-03T01:03:04.859Z,87.40
2022-10-03T01:05:39.995Z,87.50
2022-10-03T01:08:18.874Z,87.60
2022-10-03T01:10:56.566Z,87.70
2022-10-03T01:13:26.617Z,87.70
2022-10-03T01:16:12.389Z,87.60
2022-10-03T01:18:58.579Z,88.00
2022-10-03T01:21:32.096Z,88.30
2022-10-03T01:24:31.337Z,88.60
2022-10-03T01:27:16.877Z,88.60
2022-10-03T01:30:20.728Z,88.70
2022-10-03T01:32:47.692Z,88.90
2022-10-03T01:35:27.167Z,88.90
2022-10-03T01:37:58.519Z,88.80
2022-10-03T01:40:26.168Z,88.90
2022-10-03T01:43:04.099Z,89.10
2022-10-03T01:45:40.258Z,89.30
2022-10-03T01:48:15.239Z,89.70
2022-10-03T01:51:00.506Z,89.80
2022-10-03T01:53:38.749Z,89.80
2022-10-03T01:56:05.597Z,89.90
2022-10-03T01:58:43.469Z,89.80
2022-10-03T02:01:24.377Z,89.70
2022-10-03T02:04:04.402Z,89.80
2022-10-03T02:06:45.202Z,89.90
2022-10-03T02:09:12.564Z,89.80
2022-10-03T02:11:42.629Z,89.90
2022-10-03T02:14:31.997Z,90.00
2022-10-03T02:17:17.521Z,90.00
2022-10-03T02:19:56.431Z,90.00
2022-10-03T02:22:32.364Z,90.00
2022-10-03T02:25:13.033Z,90.00
2022-10-03T02:27:55.259Z,90.00
2022-10-03T02:30:35.076Z,90.00
2022-10-03T02:33:25.128Z,90.00
2022-10-03T02:36:07.304Z,90.10
2022-10-03T02:38:40.074Z,90.10
2022-10-03T02:41:25.735Z,90.10
2022-10-03T02:44:02.901Z,90.10
2022-10-03T02:47:08.586Z,90.10
2022-10-03T02:49:35.401Z,90.10
2022-10-03T02:52:02.210Z,90.10
2022-10-03T02:54:38.759Z,90.10
2022-10-03T02:57:28.517Z,90.10
2022-10-03T03:00:04.744Z,90.10
2022-10-03T03:02:45.826Z,90.10
2022-10-03T03:05:12.630Z,90.10
2022-10-03T03:08:03.108Z,90.20
2022-10-03T03:10:48.912Z,90.20
2022-10-03T03:13:15.673Z,90.10
2022-10-03T03:15:48.596Z,90.20
2022-10-03T03:18:22.440Z,90.30
2022-10-03T03:20:51.214Z,90.30
2022-10-03T03:23:24.114Z,90.20
2022-10-03T03:26:00.046Z,90.30
2022-10-03T03:28:55.664Z,90.30
2022-10-03T03:31:43.972Z,90.30
2022-10-03T03:34:29.487Z,90.30
2022-10-03T03:37:10.367Z,90.20
2022-10-03T03:40:00.339Z,90.20
2022-10-03T03:42:30.208Z,90.10
2022-10-03T03:45:15.543Z,90.10
2022-10-03T03:48:00.507Z,90.20
2022-10-03T03:50:34.627Z,90.20
2022-10-03T03:53:13.834Z,90.20
2022-10-03T03:55:59.491Z,90.20
2022-10-03T03:58:33.288Z,90.20
2022-10-03T04:01:06.549Z,90.30
2022-10-03T04:03:43.409Z,90.30
2022-10-03T04:06:36.705Z,90.20
2022-10-03T04:09:22.289Z,90.20
2022-10-03T04:11:54.437Z,90.20
2022-10-03T04:14:39.734Z,90.20
2022-10-03T04:17:34.480Z,90.20
2022-10-03T04:20:11.222Z,90.20
2022-10-03T04:22:38.757Z,90.30
2022-10-03T04:25:20.909Z,90.30
2022-10-03T04:28:12.866Z,90.30
2022-10-03T04:30:58.636Z,90.30
2022-10-03T04:33:25.537Z,90.20
2022-10-03T04:35:52.340Z,90.20
2022-10-03T04:38:35.019Z,90.20
2022-10-03T04:41:01.828Z,90.20
2022-10-03T04:43:34.705Z,90.20
2022-10-03T04:46:12.744Z,90.20
2022-10-03T04:48:45.781Z,90.30
2022-10-03T04:51:18.512Z,90.40
2022-10-03T04:53:56.804Z,90.30
2022-10-03T04:56:26.601Z,90.40
2022-10-03T04:59:00.208Z,90.40
2022-10-03T05:01:45.324Z,90.40
2022-10-03T05:04:27.412Z,90.40
2022-10-03T05:07:01.375Z,90.40
2022-10-03T05:09:49.763Z,90.30
2022-10-03T05:12:35.509Z,90.40
2022-10-03T05:15:12.781Z,90.40
2022-10-03T05:17:45.758Z,90.30
2022-10-03T05:20:12.567Z,90.30
2022-10-03T05:22:44.828Z,90.40
2022-10-03T05:25:30.729Z,90.40
2022-10-03T05:28:16.565Z,90.40
2022-10-03T05:31:04.776Z,90.40
2022-10-03T05:33:31.594Z,90.40
2022-10-03T05:36:16.821Z,90.30
2022-10-03T05:39:02.462Z,90.40
2022-10-03T05:41:35.576Z,90.40
2022-10-03T05:44:05.360Z,90.30
2022-10-03T05:46:32.209Z,90.40
2022-10-03T05:49:09.016Z,90.40
2022-10-03T05:51:54.888Z,90.40
2022-10-03T05:54:40.930Z,90.40
2022-10-03T05:57:21.903Z,90.40
2022-10-03T05:59:48.724Z,90.40
2022-10-03T06:02:35.873Z,90.30
2022-10-03T06:05:12.367Z,90.40
2022-10-03T06:07:57.483Z,90.50
2022-10-03T06:10:36.667Z,90.50
2022-10-03T06:13:35.962Z,90.40
2022-10-03T06:16:38.448Z,90.40
2022-10-03T06:19:23.343Z,90.30
2022-10-03T06:22:09.181Z,90.30
2022-10-03T06:24:49.700Z,90.40
2022-10-03T06:27:19.725Z,90.30
2022-10-03T06:29:57.160Z,90.30
2022-10-03T06:32:33.486Z,90.30
2022-10-03T06:35:19.058Z,90.30
2022-10-03T06:38:01.374Z,90.20
2022-10-03T06:40:40.450Z,90.20
2022-10-03T06:43:10.237Z,90.20
2022-10-03T06:45:56.093Z,90.10
2022-10-03T06:48:35.607Z,90.10
2022-10-03T06:51:17.849Z,90.10
2022-10-03T06:54:01.229Z,90.10
2022-10-03T06:56:50.091Z,90.10
2022-10-03T06:59:26.023Z,90.10
2022-10-03T07:02:11.628Z,90.10
2022-10-03T07:04:38.526Z,90.20
2022-10-03T07:07:05.838Z,90.20
2022-10-03T07:09:38.838Z,90.20
2022-10-03T07:12:26.699Z,90.10
2022-10-03T07:14:56.783Z,90.00
2022-10-03T07:17:23.600Z,90.20
2022-10-03T07:20:09.247Z,90.20
2022-10-03T07:22:48.300Z,90.20
2022-10-03T07:25:25.836Z,90.30
2022-10-03T07:27:59.414Z,90.30
2022-10-03T07:30:32.188Z,90.30
2022-10-03T07:33:17.795Z,90.30
2022-10-03T07:36:08.950Z,90.40
2022-10-03T07:38:54.573Z,90.30
2022-10-03T07:41:40.954Z,90.50
2022-10-03T07:44:23.387Z,90.70
2022-10-03T07:47:04.688Z,90.70
2022-10-03T07:49:31.601Z,90.60
2022-10-03T07:52:05.083Z,90.50
2022-10-03T07:54:32.139Z,90.50
2022-10-03T07:57:00.575Z,90.70
2022-10-03T07:59:33.677Z,90.80
2022-10-03T08:02:26.129Z,90.70
2022-10-03T08:05:48.551Z,90.60
2022-10-03T08:08:46.302Z,90.60
2022-10-03T08:11:39.398Z,90.50
2022-10-03T08:14:40.355Z,90.40
2022-10-03T08:17:25.934Z,90.30
2022-10-03T08:20:39.445Z,90.60
2022-10-03T08:23:25.259Z,90.30
2022-10-03T08:26:23.696Z,90.30
2022-10-03T08:29:28.691Z,90.20
2022-10-03T08:32:15.595Z,90.30
2022-10-03T08:34:47.030Z,90.30
2022-10-03T08:37:13.802Z,90.50
2022-10-03T08:40:12.211Z,90.50
2022-10-03T08:42:57.765Z,90.50
2022-10-03T08:45:25.185Z,90.60
2022-10-03T08:47:58.350Z,90.60
2022-10-03T08:50:34.414Z,90.60
2022-10-03T08:53:39.093Z,90.70
2022-10-03T08:56:47.897Z,90.90
2022-10-03T08:59:43.017Z,91.30
2022-10-03T09:02:42.577Z,91.10
2022-10-03T09:05:49.691Z,91.10
2022-10-03T09:08:40.049Z,91.10
2022-10-03T09:11:17.974Z,91.00
2022-10-03T09:14:00.916Z,91.20
2022-10-03T09:16:54.458Z,91.40
2022-10-03T09:19:33.128Z,91.50
2022-10-03T09:22:28.026Z,91.00
2022-10-03T09:28:55.259Z,90.20
2022-10-03T09:32:00.655Z,90.00
2022-10-03T09:34:41.694Z,90.00
2022-10-03T09:37:38.737Z,90.00
2022-10-03T09:40:54.123Z,90.10
2022-10-03T09:43:35.870Z,90.20
2022-10-03T09:46:33.220Z,90.40
2022-10-03T09:49:41.415Z,90.00
2022-10-03T09:55:52.173Z,89.00
2022-10-03T09:59:02.993Z,89.00
2022-10-03T10:01:53.759Z,89.10
2022-10-03T10:05:01.141Z,89.20
2022-10-03T10:07:47.471Z,89.50
2022-10-03T10:10:27.235Z,89.90
2022-10-03T10:13:13.691Z,90.20
2022-10-03T10:15:53.293Z,90.30
2022-10-03T10:18:47.701Z,90.40
2022-10-03T10:21:35.759Z,90.50
2022-10-03T10:24:21.714Z,90.30
2022-10-03T10:27:09.601Z,90.30
2022-10-03T10:30:14.175Z,90.40
2022-10-03T10:33:18.240Z,90.50
2022-10-03T10:36:14.246Z,90.30
2022-10-03T10:41:57.423Z,90.00
2022-10-03T10:44:43.750Z,90.00
2022-10-03T10:47:52.107Z,90.00
2022-10-03T10:50:47.900Z,89.80
2022-10-03T10:53:47.884Z,90.00
2022-10-03T10:56:32.563Z,90.00
2022-10-03T10:59:22.255Z,90.00
2022-10-03T11:02:01.159Z,90.00
2022-10-03T11:04:34.023Z,89.50
2022-10-03T11:07:25.763Z,89.90
2022-10-03T11:10:09.009Z,90.20
2022-10-03T11:13:03.925Z,90.50
2022-10-03T11:16:03.880Z,90.80
2022-10-03T11:18:50.473Z,91.00
2022-10-03T11:25:12.938Z,90.90
2022-10-03T11:27:58.422Z,90.80
2022-10-03T11:30:34.768Z,91.00
2022-10-03T11:33:11.219Z,90.90
2022-10-03T11:35:54.097Z,90.70
2022-10-03T11:38:20.917Z,90.80
2022-10-03T11:41:06.593Z,90.80
2022-10-03T11:43:42.597Z,90.40
2022-10-03T11:46:24.606Z,90.30
2022-10-03T11:48:54.702Z,90.20
2022-10-03T11:51:43.860Z,89.60
2022-10-03T11:54:30.650Z,88.60
2022-10-03T11:57:04.603Z,87.40
2022-10-03T11:59:31.470Z,88.30
2022-10-03T12:02:18.635Z,89.40
2022-10-03T12:04:45.496Z,90.10
2022-10-03T12:07:31.089Z,89.50
2022-10-03T12:10:16.970Z,88.90
2022-10-03T12:12:45.623Z,89.40
2022-10-03T12:15:31.545Z,89.20
2022-10-03T12:17:58.437Z,88.00
2022-10-03T12:20:28.161Z,86.70
2022-10-03T12:23:04.090Z,87.00
2022-10-03T12:25:32.089Z,87.60
2022-10-03T12:27:58.911Z,87.60
2022-10-03T12:30:27.606Z,87.50
2022-10-03T12:33:00.628Z,87.20
2022-10-03T12:35:46.553Z,87.60
2022-10-03T12:38:33.809Z,88.10
2022-10-03T12:41:09.969Z,87.60
2022-10-03T12:43:39.873Z,87.00
2022-10-03T12:46:09.715Z,86.70
2022-10-03T12:48:49.497Z,86.20
2022-10-03T12:51:16.280Z,85.80
2022-10-03T12:53:44.239Z,85.40
2022-10-03T12:56:11.120Z,86.50
2022-10-03T12:58:50.301Z,90.70
2022-10-03T13:01:32.436Z,91.80
2022-10-03T13:04:07.908Z,91.50
2022-10-03T13:07:02.253Z,88.30
2022-10-03T13:09:46.413Z,85.10
2022-10-03T13:12:16.584Z,85.40
2022-10-03T13:15:03.245Z,83.50
2022-10-03T13:17:49.409Z,81.70
2022-10-03T13:20:23.892Z,80.20
2022-10-03T13:23:04.992Z,79.50
2022-10-03T13:25:41.510Z,79.50
2022-10-03T13:28:13.044Z,79.80
2022-10-03T13:30:43.367Z,80.40
2022-10-03T13:33:18.731Z,81.10
2022-10-03T13:36:05.544Z,82.10
2022-10-03T13:38:36.707Z,86.00
2022-10-03T13:41:24.174Z,92.80
2022-10-03T13:44:02.771Z,94.20
2022-10-03T13:46:32.609Z,94.00
2022-10-03T13:49:02.358Z,93.60
2022-10-03T13:51:40.709Z,93.40
2022-10-03T13:54:15.701Z,92.50
2022-10-03T13:56:48.657Z,89.70
2022-10-03T13:59:15.470Z,85.00
2022-10-03T14:01:42.655Z,83.70
2022-10-03T14:04:15.756Z,83.00
2022-10-03T14:06:48.163Z,83.40
2022-10-03T14:09:18.008Z,82.20
2022-10-03T14:11:56.238Z,80.60
2022-10-03T14:14:34.343Z,80.10
2022-10-03T14:17:09.405Z,80.90
2022-10-03T14:19:36.774Z,81.50
2022-10-03T14:22:09.937Z,83.70
2022-10-03T14:24:37.396Z,84.60
2022-10-03T14:27:10.280Z,82.90
2022-10-03T14:29:51.702Z,80.70
2022-10-03T14:32:45.591Z,79.40
2022-10-03T14:35:24.173Z,78.30
2022-10-03T14:37:53.523Z,77.80
2022-10-03T14:40:27.995Z,77.20
2022-10-03T14:42:59.764Z,76.80
2022-10-03T14:45:29.392Z,76.50
2022-10-03T14:48:05.533Z,76.50
2022-10-03T14:50:33.197Z,76.60
2022-10-03T14:53:08.932Z,77.20
2022-10-03T14:55:47.572Z,77.60
2022-10-03T14:58:20.193Z,78.00
2022-10-03T15:00:55.394Z,78.20
2022-10-03T15:03:30.668Z,77.60
2022-10-03T15:06:02.805Z,77.40
2022-10-03T15:08:33.947Z,77.00
2022-10-03T15:11:00.855Z,76.40
2022-10-03T15:13:28.999Z,76.60
2022-10-03T15:15:56.509Z,77.10
2022-10-03T15:18:24.562Z,77.60
2022-10-03T15:20:52.536Z,77.50
2022-10-03T15:23:22.627Z,77.20
2022-10-03T15:25:53.103Z,76.70
2022-10-03T15:28:27.137Z,76.40
2022-10-03T15:30:55.182Z,76.10
2022-10-03T15:33:22.865Z,76.10
2022-10-03T15:35:52.248Z,75.90
2022-10-03T15:38:25.014Z,75.80
2022-10-03T15:41:07.313Z,76.10
2022-10-03T15:43:47.203Z,76.20
2022-10-03T15:46:29.615Z,76.00
2022-10-03T15:48:59.039Z,76.10
2022-10-03T15:51:26.929Z,76.20
2022-10-03T15:53:58.396Z,76.60
2022-10-03T15:56:46.259Z,76.80
2022-10-03T15:59:27.482Z,77.00
2022-10-03T16:01:55.669Z,77.10
2022-10-03T16:04:22.721Z,77.00
2022-10-03T16:07:03.367Z,76.80
2022-10-03T16:09:39.578Z,76.60
2022-10-03T16:12:06.325Z,76.50
2022-10-03T16:14:44.789Z,76.40
2022-10-03T16:17:16.630Z,76.30
2022-10-03T16:19:55.066Z,76.20
2022-10-03T16:22:24.981Z,76.30
2022-10-03T16:25:01.623Z,76.20
2022-10-03T16:27:30.071Z,76.30
2022-10-03T16:30:09.151Z,76.30
2022-10-03T16:32:59.341Z,76.40
2022-10-03T16:35:35.406Z,76.40
2022-10-03T16:38:04.431Z,76.30
2022-10-03T16:40:31.457Z,76.40
2022-10-03T16:42:59.088Z,76.60
2022-10-03T16:45:44.131Z,76.60
2022-10-03T16:48:49.800Z,76.80
2022-10-03T16:51:46.008Z,77.00
2022-10-03T16:54:17.735Z,77.10
2022-10-03T16:56:51.128Z,77.10
2022-10-03T16:59:19.317Z,77.10
2022-10-03T17:02:14.758Z,77.10
2022-10-03T17:04:46.148Z,77.20
2022-10-03T17:07:13.034Z,77.20
2022-10-03T17:09:44.234Z,77.10
2022-10-03T17:12:20.152Z,77.00
2022-10-03T17:14:48.238Z,76.90
2022-10-03T17:17:28.911Z,76.90
2022-10-03T17:20:00.353Z,76.90
2022-10-03T17:22:41.144Z,76.60
2022-10-03T17:25:31.216Z,76.30
2022-10-03T17:28:10.623Z,75.90
2022-10-03T17:31:04.823Z,75.30
2022-10-03T17:33:58.279Z,75.00
2022-10-03T17:36:35.029Z,74.60
2022-10-03T17:39:25.538Z,74.40
2022-10-03T17:41:57.683Z,74.30
2022-10-03T17:44:47.669Z,74.20
2022-10-03T17:47:48.824Z,74.20
2022-10-03T17:50:46.865Z,74.20
2022-10-03T17:59:42.832Z,74.20
2022-10-03T18:02:20.571Z,74.30
2022-10-03T18:04:53.320Z,74.30
2022-10-03T18:07:22.946Z,74.40
2022-10-03T18:09:54.518Z,74.40
2022-10-03T18:12:40.361Z,74.40
2022-10-03T18:15:22.672Z,74.30
2022-10-03T18:18:01.042Z,74.40
2022-10-03T18:20:37.192Z,74.40
2022-10-03T18:23:06.428Z,74.40
2022-10-03T18:26:21.000Z,74.50
2022-10-03T18:28:50.211Z,75.30
2022-10-03T18:31:17.126Z,74.50
2022-10-03T18:33:52.159Z,74.60
2022-10-03T18:36:22.741Z,74.70
2022-10-03T18:38:51.178Z,74.90
2022-10-03T18:41:19.254Z,75.00
2022-10-03T18:43:51.098Z,75.00
2022-10-03T18:46:21.238Z,75.00
2022-10-03T18:52:10.577Z,75.20
2022-10-03T18:54:40.491Z,75.10
2022-10-03T18:57:11.150Z,75.10
2022-10-03T18:59:45.378Z,75.10
2022-10-03T19:02:16.571Z,75.20
2022-10-03T19:04:45.759Z,75.20
2022-10-03T19:07:23.002Z,75.30
2022-10-03T19:13:25.706Z,75.20
2022-10-03T19:16:08.869Z,75.40
2022-10-03T19:18:53.990Z,75.50
2022-10-03T19:21:22.547Z,75.50
2022-10-03T19:23:51.964Z,75.40
2022-10-03T19:26:20.671Z,75.50
2022-10-03T19:28:52.915Z,75.50
2022-10-03T19:31:26.208Z,75.50
2022-10-03T19:33:58.350Z,75.50
2022-10-03T19:36:34.644Z,75.70
2022-10-03T19:39:02.535Z,75.70
2022-10-03T19:42:01.875Z,75.90
2022-10-03T19:44:28.852Z,75.90
2022-10-03T19:46:55.732Z,76.00
2022-10-03T19:49:33.389Z,76.00
2022-10-03T19:52:16.014Z,75.90
2022-10-03T19:54:45.789Z,75.90
2022-10-03T19:57:17.173Z,75.90
2022-10-03T19:59:45.413Z,75.80
2022-10-03T20:02:12.343Z,75.80
2022-10-03T20:04:39.762Z,76.00
2022-10-03T20:07:26.816Z,76.00
2022-10-03T20:09:58.315Z,75.90
2022-10-03T20:12:27.821Z,75.90
2022-10-03T20:14:57.994Z,75.90
2022-10-03T20:17:25.132Z,75.90
2022-10-03T20:20:02.565Z,75.90
2022-10-03T20:22:36.257Z,76.00
2022-10-03T20:25:05.493Z,76.00
2022-10-03T20:27:43.131Z,76.00
2022-10-03T20:30:19.161Z,76.00
2022-10-03T20:32:46.320Z,76.00
2022-10-03T20:35:22.034Z,76.20
2022-10-03T20:37:52.039Z,76.20
2022-10-03T20:40:25.854Z,76.20
2022-10-03T20:42:56.474Z,76.30
2022-10-03T20:45:24.596Z,76.30
2022-10-03T20:48:07.728Z,75.90
2022-10-03T20:50:34.620Z,75.90
2022-10-03T20:53:02.449Z,75.90
2022-10-03T20:55:36.141Z,76.00
2022-10-03T20:58:26.681Z,76.00
2022-10-03T21:00:59.372Z,76.10
2022-10-03T21:03:33.553Z,76.10
2022-10-03T21:06:04.377Z,76.30
2022-10-03T21:08:36.635Z,76.40
2022-10-03T21:11:04.865Z,76.20
2022-10-03T21:13:31.955Z,76.10
2022-10-03T21:16:00.417Z,76.00
2022-10-03T21:18:30.671Z,75.90
2022-10-03T21:21:10.903Z,76.00
2022-10-03T21:23:50.181Z,76.10
2022-10-03T21:26:24.846Z,76.30
2022-10-03T21:29:11.670Z,76.30
2022-10-03T21:31:43.132Z,76.30
2022-10-03T21:34:19.447Z,76.30
2022-10-03T21:36:46.200Z,76.30
2022-10-03T21:39:28.373Z,76.20
2022-10-03T21:42:01.257Z,76.10
2022-10-03T21:44:28.163Z,76.00
2022-10-03T21:47:13.760Z,76.10
2022-10-03T21:49:43.453Z,76.00
2022-10-03T21:52:31.953Z,76.00
2022-10-03T21:55:08.316Z,76.00
2022-10-03T21:57:41.472Z,76.00
2022-10-03T22:00:10.468Z,76.10
2022-10-03T22:02:49.661Z,76.20
2022-10-03T22:05:35.316Z,76.30
2022-10-03T22:08:31.601Z,76.20
2022-10-03T22:11:18.690Z,76.20
2022-10-03T22:13:54.032Z,76.90
2022-10-03T22:16:23.950Z,76.00
2022-10-03T22:18:56.959Z,76.00
2022-10-03T22:21:25.858Z,76.00
2022-10-03T22:24:07.897Z,76.00
2022-10-03T22:26:59.357Z,76.00
2022-10-03T22:29:35.064Z,76.10
2022-10-03T22:32:20.593Z,76.90
2022-10-03T22:35:08.502Z,76.20
2022-10-03T22:37:35.721Z,76.20
2022-10-03T22:40:03.295Z,76.20
2022-10-03T22:42:33.846Z,76.20
2022-10-03T22:45:02.521Z,76.30
2022-10-03T22:47:30.988Z,76.40
2022-10-03T22:50:00.447Z,76.50
2022-10-03T22:52:28.576Z,76.50
2022-10-03T22:54:56.009Z,76.50
2022-10-03T22:57:23.741Z,76.60
2022-10-03T22:59:54.706Z,76.50
2022-10-03T23:02:27.107Z,76.70
2022-10-03T23:04:56.168Z,76.80
2022-10-03T23:07:26.575Z,76.80
2022-10-03T23:10:16.823Z,76.80
2022-10-03T23:13:03.846Z,76.80
2022-10-03T23:15:32.233Z,76.80
2022-10-03T23:18:10.104Z,76.70
2022-10-03T23:20:49.067Z,76.70
2022-10-03T23:23:29.004Z,76.60
2022-10-03T23:26:01.867Z,76.60
2022-10-03T23:28:28.737Z,76.60
2022-10-03T23:30:55.653Z,76.60
2022-10-03T23:33:32.532Z,76.80
2022-10-03T23:36:19.619Z,76.80
2022-10-03T23:38:46.431Z,76.80
2022-10-03T23:41:14.677Z,76.90
2022-10-03T23:43:44.736Z,76.90
2022-10-03T23:46:13.461Z,76.90
2022-10-03T23:48:43.683Z,76.80
2022-10-03T23:51:12.795Z,76.80
2022-10-03T23:53:41.850Z,76.60
2022-10-03T23:56:21.286Z,76.80
2022-10-03T23:58:56.021Z,76.70
